Time;durP1;ratioP1;P1;durP2;ratioP2;P2;SDS_P1;SDS_P2;PMS_P1;PMS_P2;Temp;Humidity;BMP_temperature;BMP_pressure;BME280_temperature;BME280_humidity;BME280_pressure;Samples;Min_cycle;Max_cycle;Signal;HPM_P1;HPM_P2
2022/06/16 00:00:17;;;;;;;7.95;6.07;;;14.10;99.90;;;;;;5073669;28;20100;-53
2022/06/16 00:02:49;;;;;;;10.15;6.57;;;14.00;99.90;;;;;;5073560;28;20048;-53
2022/06/16 00:05:21;;;;;;;11.90;6.35;;;14.00;99.90;;;;;;5073632;28;20020;-53
2022/06/16 00:07:47;;;;;;;10.95;6.30;;;14.10;99.90;;;;;;5073733;28;20032;-53
2022/06/16 00:10:14;;;;;;;14.15;7.25;;;14.00;99.90;;;;;;5073585;28;20023;-53
2022/06/16 00:12:41;;;;;;;12.13;6.50;;;14.00;99.90;;;;;;5076249;28;20052;-53
2022/06/16 00:15:09;;;;;;;11.98;6.55;;;14.00;99.90;;;;;;5077023;28;20031;-53
2022/06/16 00:17:35;;;;;;;10.73;6.40;;;13.90;99.90;;;;;;5077067;28;20033;-53
2022/06/16 00:20:04;;;;;;;7.78;5.72;;;13.90;99.90;;;;;;5077143;28;20020;-53
2022/06/16 00:22:31;;;;;;;13.82;6.18;;;13.90;99.90;;;;;;5076798;28;20064;-53
2022/06/16 00:24:57;;;;;;;12.88;6.60;;;13.80;99.90;;;;;;5076914;28;20063;-53
2022/06/16 00:27:23;;;;;;;9.23;6.13;;;13.80;99.90;;;;;;5076798;28;20024;-53
2022/06/16 00:29:49;;;;;;;11.65;6.03;;;13.70;99.90;;;;;;5075648;28;20037;-53
2022/06/16 00:32:15;;;;;;;7.85;5.80;;;13.70;99.90;;;;;;5076730;28;20024;-53
2022/06/16 00:34:41;;;;;;;7.90;5.65;;;13.70;99.90;;;;;;5075609;28;20024;-53
2022/06/16 00:37:07;;;;;;;8.48;6.70;;;13.60;99.90;;;;;;5076555;28;20099;-53
2022/06/16 00:39:33;;;;;;;11.20;6.63;;;13.60;99.90;;;;;;5076674;28;20456;-53
2022/06/16 00:42:16;;;;;;;13.13;7.03;;;13.60;99.90;;;;;;5075436;28;20064;-53
2022/06/16 00:44:46;;;;;;;9.27;6.32;;;13.60;99.90;;;;;;5075294;28;20032;-53
2022/06/16 00:47:12;;;;;;;15.52;6.55;;;13.50;99.90;;;;;;5076521;28;20055;-53
2022/06/16 00:49:42;;;;;;;10.85;6.30;;;13.40;99.90;;;;;;5076412;28;20086;-53
2022/06/16 00:52:14;;;;;;;12.27;6.80;;;13.40;99.90;;;;;;5076290;28;20131;-53
2022/06/16 00:54:46;;;;;;;11.55;6.43;;;13.30;99.90;;;;;;5076320;28;20474;-53
2022/06/16 00:57:20;;;;;;;8.10;5.95;;;13.20;99.90;;;;;;5076175;28;20032;-53
2022/06/16 00:59:46;;;;;;;9.10;5.90;;;13.20;99.90;;;;;;5076557;28;20085;-53
2022/06/16 01:02:12;;;;;;;11.48;6.25;;;13.20;99.90;;;;;;5091768;28;20074;-53
2022/06/16 01:04:53;;;;;;;9.48;6.40;;;13.10;99.90;;;;;;5076419;28;20025;-53
2022/06/16 01:07:49;;;;;;;12.98;6.57;;;13.20;99.90;;;;;;5076418;28;20029;-53
2022/06/16 01:10:17;;;;;;;10.90;6.38;;;13.10;99.90;;;;;;5067381;28;20325;-53
2022/06/16 01:16:01;;;;;;;15.95;6.20;;;13.10;99.90;;;;;;5075898;28;20036;-53
2022/06/16 01:18:36;;;;;;;10.88;6.93;;;13.00;99.90;;;;;;5075977;28;20446;-53
2022/06/16 01:21:28;;;;;;;13.48;7.93;;;13.00;99.90;;;;;;5074604;28;20063;-53
2022/06/16 01:24:11;;;;;;;13.98;6.85;;;13.00;99.90;;;;;;5063930;28;20041;-53
2022/06/16 01:27:04;;;;;;;16.25;7.50;;;12.90;99.90;;;;;;5074369;28;20028;-53
2022/06/16 01:29:53;;;;;;;8.63;6.60;;;12.80;99.90;;;;;;5074432;28;20112;-53
2022/06/16 01:32:24;;;;;;;10.43;6.90;;;12.80;99.90;;;;;;5074164;28;20084;-53
2022/06/16 01:35:26;;;;;;;28.80;14.48;;;12.80;99.90;;;;;;5074302;28;20050;-53
2022/06/16 01:38:10;;;;;;;;;;;12.90;99.90;;;;;;5108672;28;20062;-54
2022/06/16 01:40:38;;;;;;;37.17;17.55;;;12.80;99.90;;;;;;5075413;28;19952;-53
2022/06/16 01:43:36;;;;;;;28.25;13.73;;;12.80;99.90;;;;;;5074178;28;20162;-53
2022/06/16 01:46:04;;;;;;;16.55;9.32;;;12.80;99.90;;;;;;5075259;28;20049;-53
2022/06/16 01:48:32;;;;;;;16.02;9.05;;;12.70;99.90;;;;;;5075273;28;20082;-53
2022/06/16 01:51:02;;;;;;;21.40;11.07;;;12.70;99.90;;;;;;5075248;28;20030;-53
2022/06/16 01:53:38;;;;;;;16.25;9.27;;;12.70;99.90;;;;;;5075275;28;20036;-53
2022/06/16 01:56:21;;;;;;;14.18;7.55;;;12.60;99.90;;;;;;5074018;28;20536;-53
2022/06/16 01:58:56;;;;;;;11.50;6.72;;;12.60;99.90;;;;;;5073940;28;20036;-53
2022/06/16 02:01:26;;;;;;;9.32;6.75;;;12.60;99.90;;;;;;5090733;28;20086;-53
2022/06/16 02:03:58;;;;;;;11.68;6.47;;;12.60;99.90;;;;;;5075073;28;20028;-53
2022/06/16 02:06:29;;;;;;;17.55;8.20;;;12.60;99.90;;;;;;5075117;28;20044;-53
2022/06/16 02:09:04;;;;;;;22.45;14.23;;;12.60;99.90;;;;;;5073593;28;20458;-53
2022/06/16 02:11:33;;;;;;;28.30;18.10;;;12.50;99.90;;;;;;5075145;28;20103;-53
2022/06/16 02:14:22;;;;;;;25.63;15.18;;;12.50;99.90;;;;;;5073566;28;20032;-53
2022/06/16 02:16:53;;;;;;;17.88;12.57;;;12.50;99.90;;;;;;5073541;28;20032;-54
2022/06/16 02:19:24;;;;;;;24.13;12.57;;;12.50;99.90;;;;;;5073400;28;20035;-53
2022/06/16 02:21:52;;;;;;;18.33;11.53;;;12.60;99.90;;;;;;5073609;28;20554;-53
2022/06/16 02:24:21;;;;;;;18.10;11.32;;;12.50;99.90;;;;;;5074939;28;20264;-53
2022/06/16 02:26:49;;;;;;;15.05;9.02;;;12.50;99.90;;;;;;5074501;28;20024;-53
2022/06/16 02:29:36;;;;;;;11.00;7.47;;;12.50;99.90;;;;;;5073400;28;20382;-53
2022/06/16 02:32:18;;;;;;;10.70;7.20;;;12.40;99.90;;;;;;5090113;28;20417;-53
2022/06/16 02:35:09;;;;;;;10.07;5.97;;;12.40;99.90;;;;;;5072731;28;20158;-53
2022/06/16 02:38:04;;;;;;;8.82;5.95;;;12.40;99.90;;;;;;5073291;28;20029;-53
2022/06/16 02:40:51;;;;;;;11.18;5.72;;;12.30;99.90;;;;;;5074431;28;20412;-53
2022/06/16 02:43:58;;;;;;;10.80;6.43;;;12.30;99.90;;;;;;5074353;28;20028;-53
2022/06/16 02:46:42;;;;;;;11.68;6.65;;;12.30;99.90;;;;;;5074412;28;20078;-53
2022/06/16 02:49:43;;;;;;;8.50;6.05;;;12.30;99.90;;;;;;5073189;28;20028;-54
2022/06/16 02:52:15;;;;;;;9.57;5.82;;;12.20;99.90;;;;;;5064719;28;20052;-53
2022/06/16 02:54:54;;;;;;;12.27;5.75;;;12.30;99.90;;;;;;5073116;28;20029;-53
2022/06/16 02:57:34;;;;;;;9.02;6.13;;;12.20;99.90;;;;;;5074315;28;20051;-53
2022/06/16 03:00:07;;;;;;;9.23;6.38;;;12.10;99.90;;;;;;5074600;28;20036;-54
2022/06/16 03:02:37;;;;;;;10.25;6.07;;;12.10;99.90;;;;;;5072968;28;20203;-53
2022/06/16 03:05:05;;;;;;;11.40;6.00;;;12.10;99.90;;;;;;5074379;28;20142;-53
2022/06/16 03:07:36;;;;;;;9.82;6.18;;;12.00;99.90;;;;;;5073022;28;20063;-53
2022/06/16 03:13:02;;;;;;;9.30;5.97;;;12.10;99.90;;;;;;5073046;28;20029;-53
2022/06/16 03:15:28;;;;;;;11.63;6.63;;;12.20;99.90;;;;;;5072760;28;20082;-54
2022/06/16 03:17:54;;;;;;;13.20;7.50;;;12.30;99.90;;;;;;5072739;28;20040;-53
2022/06/16 03:20:21;;;;;;;15.45;7.97;;;12.30;99.90;;;;;;5089689;28;20097;-53
2022/06/16 03:22:47;;;;;;;43.80;12.45;;;12.40;99.90;;;;;;5072944;28;20031;-53
2022/06/16 03:25:13;;;;;;;17.77;8.68;;;12.20;99.90;;;;;;5074005;28;20393;-54
2022/06/16 03:27:39;;;;;;;20.33;7.82;;;12.10;99.90;;;;;;5072959;28;20036;-54
2022/06/16 03:30:07;;;;;;;16.08;7.78;;;12.10;99.90;;;;;;5072595;28;20036;-54
2022/06/16 03:32:33;;;;;;;14.95;8.13;;;12.20;99.90;;;;;;5073899;28;20017;-54
2022/06/16 03:34:58;;;;;;;17.63;8.45;;;12.20;99.90;;;;;;5072938;28;20028;-53
2022/06/16 03:37:28;;;;;;;18.67;8.32;;;12.10;99.90;;;;;;5072692;28;20070;-54
2022/06/16 03:39:59;;;;;;;12.93;7.70;;;12.20;99.90;;;;;;5072455;28;20391;-53
2022/06/16 03:42:25;;;;;;;12.55;7.25;;;12.10;99.90;;;;;;5089569;28;20036;-53
2022/06/16 03:44:51;;;;;;;10.90;7.43;;;12.10;99.90;;;;;;5089621;28;20036;-54
2022/06/16 03:47:18;;;;;;;10.00;6.75;;;12.20;99.90;;;;;;5076398;28;20035;-54
2022/06/16 03:49:44;;;;;;;16.50;7.50;;;12.10;99.90;;;;;;5076361;28;20269;-54
2022/06/16 03:52:10;;;;;;;10.27;6.85;;;12.10;99.90;;;;;;5076158;28;20328;-54
2022/06/16 03:54:38;;;;;;;10.80;6.90;;;12.20;99.90;;;;;;5076302;28;20075;-54
2022/06/16 03:57:11;;;;;;;13.60;7.25;;;12.20;99.90;;;;;;5076037;28;20043;-54
2022/06/16 03:59:37;;;;;;;11.95;7.45;;;12.30;99.90;;;;;;5076343;28;20032;-53
2022/06/16 04:02:26;;;;;;;13.57;6.57;;;12.30;99.90;;;;;;5077005;28;20457;-53
2022/06/16 04:04:52;;;;;;;10.25;6.78;;;12.40;99.90;;;;;;5092881;28;20033;-54
2022/06/16 04:07:18;;;;;;;12.48;7.45;;;12.50;99.90;;;;;;5076082;28;20414;-54
2022/06/16 04:10:06;;;;;;;12.27;7.30;;;12.50;99.90;;;;;;5076198;28;20044;-54
2022/06/16 04:12:34;;;;;;;10.65;6.90;;;12.50;99.90;;;;;;5075917;28;20028;-53
2022/06/16 04:15:01;;;;;;;16.05;7.80;;;12.60;99.90;;;;;;5092933;28;20482;-53
2022/06/16 04:17:29;;;;;;;14.57;7.03;;;12.70;99.90;;;;;;5075902;28;20078;-54
2022/06/16 04:20:14;;;;;;;14.98;7.00;;;12.80;99.90;;;;;;5092685;28;20489;-54
2022/06/16 04:22:56;;;;;;;13.93;7.32;;;12.90;99.90;;;;;;5075688;28;20044;-54
2022/06/16 04:25:32;;;;;;;12.57;6.80;;;12.90;99.90;;;;;;5075515;28;20349;-54
2022/06/16 04:28:11;;;;;;;13.98;7.18;;;13.00;99.90;;;;;;5075810;28;20078;-54
2022/06/16 04:30:45;;;;;;;13.57;6.70;;;13.10;99.90;;;;;;5092490;28;20032;-53
2022/06/16 04:33:13;;;;;;;16.20;7.43;;;13.20;99.90;;;;;;5075695;28;20484;-54
2022/06/16 04:35:41;;;;;;;15.13;7.18;;;13.30;99.90;;;;;;5075582;28;20060;-54
2022/06/16 04:38:09;;;;;;;12.85;6.53;;;13.50;99.90;;;;;;5109389;28;20397;-54
2022/06/16 04:40:37;;;;;;;12.00;6.95;;;13.60;99.90;;;;;;5075188;28;20440;-53
2022/06/16 04:43:15;;;;;;;16.77;8.30;;;13.80;99.90;;;;;;5075362;28;20363;-54
2022/06/16 04:45:42;;;;;;;19.45;8.98;;;13.80;99.90;;;;;;5075319;28;20051;-53
2022/06/16 04:48:10;;;;;;;13.10;7.03;;;14.00;99.90;;;;;;5075362;28;20024;-53
2022/06/16 04:50:39;;;;;;;19.58;7.68;;;14.10;99.90;;;;;;5075142;28;20064;-54
2022/06/16 04:53:07;;;;;;;17.67;8.05;;;14.30;99.90;;;;;;5075130;28;20048;-53
2022/06/16 04:55:56;;;;;;;19.73;8.93;;;14.40;99.90;;;;;;5075157;28;20066;-54
2022/06/16 04:58:28;;;;;;;15.38;7.85;;;14.50;99.90;;;;;;5074359;28;20144;-53
2022/06/16 05:01:05;;;;;;;15.00;8.25;;;14.60;99.90;;;;;;5075268;28;20028;-53
2022/06/16 05:03:49;;;;;;;17.08;9.07;;;14.60;99.90;;;;;;5074901;28;20555;-53
2022/06/16 05:06:32;;;;;;;18.05;7.97;;;14.80;99.90;;;;;;5076191;28;20443;-54
2022/06/16 05:09:12;;;;;;;26.17;10.20;;;14.90;99.90;;;;;;5074945;28;20028;-54
2022/06/16 05:11:43;;;;;;;23.30;9.30;;;15.00;99.90;;;;;;5074326;28;20438;-53
2022/06/16 05:14:25;;;;;;;23.00;8.40;;;15.10;99.90;;;;;;5071156;28;20127;-54
2022/06/16 05:17:10;;;;;;;13.05;8.30;;;15.20;99.90;;;;;;5086720;28;20036;-54
2022/06/16 05:19:53;;;;;;;24.77;9.18;;;15.40;99.90;;;;;;5075203;28;20481;-53
2022/06/16 05:22:38;;;;;;;24.83;9.32;;;15.60;99.90;;;;;;5072914;28;20138;-53
2022/06/16 05:25:16;;;;;;;17.65;7.63;;;15.70;99.90;;;;;;5106806;28;20494;-54
2022/06/16 05:28:05;;;;;;;22.23;8.35;;;15.90;99.90;;;;;;5072718;28;20161;-53
2022/06/16 05:30:58;;;;;;;20.23;8.10;;;15.90;99.90;;;;;;5064701;28;20139;-53
2022/06/16 05:33:35;;;;;;;15.90;7.82;;;16.00;99.90;;;;;;5071431;28;20482;-54
2022/06/16 05:36:19;;;;;;;17.23;8.23;;;16.10;99.90;;;;;;5075487;28;20249;-53
2022/06/16 05:39:11;;;;;;;17.92;8.10;;;16.30;99.90;;;;;;5073662;28;20028;-53
2022/06/16 05:41:49;;;;;;;12.95;8.65;;;16.40;99.90;;;;;;5070114;28;20025;-53
2022/06/16 05:44:44;;;;;;;23.70;11.38;;;16.60;99.90;;;;;;5064071;28;20512;-54
2022/06/16 05:47:36;;;;;;;17.30;11.38;;;16.80;99.90;;;;;;5074276;28;20051;-54
2022/06/16 05:50:03;;;;;;;25.43;11.87;;;16.90;99.90;;;;;;5071213;28;20028;-54
2022/06/16 05:52:30;;;;;;;21.05;10.50;;;17.10;99.90;;;;;;5074466;28;20057;-54
2022/06/16 05:55:04;;;;;;;24.83;10.00;;;17.20;99.90;;;;;;5084166;28;20466;-54
2022/06/16 05:57:30;;;;;;;18.75;9.32;;;17.40;99.90;;;;;;5073596;28;20032;-54
2022/06/16 05:59:57;;;;;;;24.00;9.55;;;17.50;99.90;;;;;;5070994;28;20036;-54
2022/06/16 06:02:23;;;;;;;17.55;8.77;;;17.70;99.90;;;;;;5064930;28;20040;-55
2022/06/16 06:04:49;;;;;;;30.17;10.57;;;17.80;99.90;;;;;;5070151;28;20387;-55
2022/06/16 06:07:16;;;;;;;12.30;7.90;;;17.90;99.90;;;;;;5106898;28;20147;-55
2022/06/16 06:18:33;;;;;;;15.38;7.80;;;18.40;99.90;;;;;;5073281;28;20059;-54
2022/06/16 06:20:59;;;;;;;16.60;7.82;;;18.50;99.90;;;;;;5073555;28;20425;-54
2022/06/16 06:23:25;;;;;;;18.48;8.38;;;18.50;99.90;;;;;;5064164;28;20032;-54
2022/06/16 06:25:53;;;;;;;19.88;8.43;;;18.70;99.90;;;;;;5078001;28;20081;-54
2022/06/16 06:28:21;;;;;;;14.30;6.85;;;18.80;99.90;;;;;;5082517;28;20028;-55
2022/06/16 06:30:50;;;;;;;26.33;7.97;;;19.00;99.90;;;;;;5072201;28;20130;-54
2022/06/16 06:33:16;;;;;;;21.50;7.47;;;19.20;99.90;;;;;;5071974;28;20041;-54
2022/06/16 06:35:43;;;;;;;23.80;7.47;;;19.40;99.60;;;;;;5088316;28;20059;-54
2022/06/16 06:38:10;;;;;;;36.20;7.72;;;19.60;99.90;;;;;;5053633;28;20033;-54
2022/06/16 06:40:37;;;;;;;16.73;7.55;;;19.80;98.10;;;;;;5088950;28;20039;-54
2022/06/16 06:43:04;;;;;;;16.08;7.15;;;20.00;99.90;;;;;;5073126;28;20024;-55
2022/06/16 06:45:33;;;;;;;24.63;8.70;;;20.30;99.90;;;;;;5098076;28;20032;-55
2022/06/16 06:47:59;;;;;;;28.65;7.13;;;20.40;96.40;;;;;;5074448;28;20100;-55
2022/06/16 06:50:37;;;;;;;18.48;6.70;;;20.70;98.70;;;;;;5073115;28;20029;-55
2022/06/16 06:53:04;;;;;;;18.35;7.57;;;20.90;95.80;;;;;;5071698;28;20142;-55
2022/06/16 06:55:30;;;;;;;19.70;7.85;;;21.20;96.40;;;;;;5069472;28;20032;-55
2022/06/16 06:57:57;;;;;;;23.35;8.77;;;21.40;96.90;;;;;;5074241;28;20624;-55
2022/06/16 07:00:25;;;;;;;22.55;8.25;;;21.50;91.60;;;;;;5073212;28;20085;-55
2022/06/16 07:02:51;;;;;;;27.58;9.10;;;21.80;92.60;;;;;;5076256;28;20028;-55
2022/06/16 07:05:18;;;;;;;28.02;9.95;;;22.10;93.20;;;;;;5071435;28;20020;-55
2022/06/16 07:07:44;;;;;;;18.92;8.10;;;22.40;86.30;;;;;;5071126;28;20108;-55
2022/06/16 07:10:11;;;;;;;25.92;8.73;;;22.60;89.60;;;;;;5069588;28;20021;-55
2022/06/16 07:12:37;;;;;;;22.00;8.32;;;22.90;90.00;;;;;;5068607;28;20123;-55
2022/06/16 07:15:04;;;;;;;24.00;7.80;;;23.10;77.00;;;;;;5071477;28;20016;-56
2022/06/16 07:17:30;;;;;;;18.02;7.03;;;23.20;86.70;;;;;;5070336;28;20039;-55
2022/06/16 07:19:56;;;;;;;29.05;8.55;;;23.50;83.90;;;;;;5071060;28;20024;-56
2022/06/16 07:22:22;;;;;;;14.68;5.97;;;23.80;76.10;;;;;;5073612;28;20016;-55
2022/06/16 07:24:48;;;;;;;14.85;6.47;;;24.10;75.50;;;;;;5076042;28;20320;-55
2022/06/16 07:27:17;;;;;;;13.68;6.70;;;24.50;73.50;;;;;;5075885;28;20032;-56
2022/06/16 07:29:43;;;;;;;16.17;6.80;;;24.60;72.10;;;;;;5076135;28;20060;-56
2022/06/16 07:32:09;;;;;;;15.63;6.15;;;24.90;69.50;;;;;;5077141;28;20063;-56
2022/06/16 07:34:35;;;;;;;14.88;5.35;;;25.20;67.60;;;;;;5077432;28;20032;-56
2022/06/16 07:37:02;;;;;;;8.32;4.85;;;25.50;65.50;;;;;;5077333;28;20434;-55
2022/06/16 07:39:28;;;;;;;11.45;5.13;;;25.20;63.00;;;;;;5076586;28;20028;-56
2022/06/16 07:41:54;;;;;;;11.55;5.50;;;25.40;66.40;;;;;;5075971;28;20488;-56
2022/06/16 07:44:21;;;;;;;10.07;5.28;;;25.70;63.10;;;;;;5076898;28;20099;-56
2022/06/16 07:46:47;;;;;;;12.38;5.32;;;26.00;63.30;;;;;;5076624;28;20040;-55
2022/06/16 07:49:22;;;;;;;15.73;5.78;;;26.40;62.50;;;;;;5077294;28;20402;-56
2022/06/16 07:51:50;;;;;;;16.00;6.13;;;26.80;60.00;;;;;;5076255;28;20041;-56
2022/06/16 07:54:17;;;;;;;12.25;5.55;;;27.10;58.80;;;;;;5076187;28;20129;-56
2022/06/16 07:56:45;;;;;;;40.78;8.77;;;27.40;59.70;;;;;;5076516;28;20028;-56
2022/06/16 07:59:12;;;;;;;9.25;4.88;;;27.70;57.20;;;;;;5076407;28;20047;-56
2022/06/16 08:01:38;;;;;;;9.00;4.47;;;27.90;54.60;;;;;;5075886;28;20031;-56
2022/06/16 08:04:05;;;;;;;9.27;4.43;;;28.00;54.50;;;;;;5072733;28;20025;-56
2022/06/16 08:06:33;;;;;;;10.20;5.20;;;28.20;55.70;;;;;;5076547;28;20036;-56
2022/06/16 08:08:59;;;;;;;17.08;5.03;;;28.40;53.40;;;;;;5074471;28;20112;-56
2022/06/16 08:14:10;;;;;;;11.15;4.75;;;28.50;51.40;;;;;;5069720;28;20033;-56
2022/06/16 08:16:36;;;;;;;19.45;6.00;;;28.60;50.70;;;;;;5075714;28;20210;-56
2022/06/16 08:19:03;;;;;;;16.15;4.85;;;28.60;50.70;;;;;;5075990;28;20070;-56
2022/06/16 08:21:29;;;;;;;14.48;5.60;;;28.60;51.70;;;;;;5074448;28;20056;-56
2022/06/16 08:23:58;;;;;;;12.63;4.82;;;28.60;50.90;;;;;;5072440;28;20086;-56
2022/06/16 08:26:24;;;;;;;13.82;4.38;;;28.80;52.20;;;;;;5076010;28;20021;-56
2022/06/16 08:28:52;;;;;;;10.63;4.30;;;29.10;49.40;;;;;;5074722;28;20371;-56
2022/06/16 08:31:20;;;;;;;12.60;4.07;;;29.20;52.40;;;;;;5072682;28;20024;-56
2022/06/16 08:33:48;;;;;;;12.40;4.53;;;29.60;50.40;;;;;;5073103;28;20024;-56
2022/06/16 08:36:14;;;;;;;13.43;4.50;;;29.70;49.40;;;;;;5076445;28;20021;-56
2022/06/16 08:38:40;;;;;;;8.13;4.05;;;29.70;47.70;;;;;;5075620;28;20042;-56
2022/06/16 08:41:13;;;;;;;14.15;4.90;;;29.90;49.00;;;;;;5076706;28;20029;-56
2022/06/16 08:43:50;;;;;;;9.98;4.28;;;30.00;47.50;;;;;;5076453;28;20099;-56
2022/06/16 08:46:18;;;;;;;10.57;4.40;;;30.40;48.90;;;;;;5075197;28;20029;-56
2022/06/16 08:49:13;;;;;;;9.38;4.35;;;30.50;48.20;;;;;;5075317;28;20025;-56
2022/06/16 08:52:21;;;;;;;7.05;3.85;;;30.80;46.20;;;;;;5074158;28;20494;-56
2022/06/16 08:55:06;;;;;;;11.90;4.20;;;31.00;47.20;;;;;;5073656;28;20029;-56
2022/06/16 08:58:12;;;;;;;9.55;3.28;;;31.00;44.90;;;;;;5075437;28;20394;-56
2022/06/16 09:00:46;;;;;;;22.10;6.05;;;31.10;44.00;;;;;;5072761;28;20024;-56
2022/06/16 09:03:29;;;;;;;11.57;4.03;;;30.90;43.50;;;;;;5075481;28;20028;-56
2022/06/16 09:06:10;;;;;;;7.07;3.00;;;31.20;44.30;;;;;;5074886;28;20028;-56
2022/06/16 09:09:10;;;;;;;7.20;3.97;;;31.50;41.50;;;;;;5074478;28;20025;-56
2022/06/16 09:12:20;;;;;;;9.32;3.85;;;31.60;42.30;;;;;;5075927;28;20458;-56
2022/06/16 09:15:12;;;;;;;8.77;3.78;;;31.80;41.50;;;;;;4992609;28;20035;-56
2022/06/16 09:18:32;;;;;;;11.65;4.60;;;31.70;43.20;;;;;;5075454;28;20082;-56
2022/06/16 09:21:16;;;;;;;9.82;3.25;;;30.90;44.00;;;;;;4994213;28;20030;-56
2022/06/16 09:23:59;;;;;;;6.10;3.67;;;30.00;42.50;;;;;;5074530;28;20021;-56
2022/06/16 09:26:46;;;;;;;13.18;4.57;;;30.80;45.20;;;;;;5074109;28;20042;-56
2022/06/16 09:29:25;;;;;;;20.70;5.78;;;30.70;43.40;;;;;;5056172;28;20131;-56
2022/06/16 09:31:58;;;;;;;6.63;3.60;;;30.20;44.70;;;;;;5060576;28;20016;-56
2022/06/16 09:34:51;;;;;;;6.13;3.30;;;29.90;45.80;;;;;;5074504;28;20024;-56
2022/06/16 09:37:58;;;;;;;6.10;3.95;;;30.00;43.00;;;;;;5074804;28;20032;-56
2022/06/16 09:40:33;;;;;;;6.85;3.60;;;30.80;47.10;;;;;;5074479;28;20048;-56
2022/06/16 09:43:19;;;;;;;7.63;3.40;;;31.70;46.30;;;;;;5074350;28;20056;-56
2022/06/16 09:45:51;;;;;;;4.43;2.90;;;31.90;39.10;;;;;;5071777;28;20082;-56
2022/06/16 09:48:26;;;;;;;9.60;3.55;;;32.30;40.00;;;;;;5068784;28;20025;-56
2022/06/16 09:51:05;;;;;;;8.52;3.15;;;32.60;42.00;;;;;;5073981;28;20074;-56
2022/06/16 09:54:14;;;;;;;12.02;3.38;;;32.90;39.10;;;;;;5073478;28;20032;-56
2022/06/16 09:56:49;;;;;;;6.50;3.53;;;33.40;39.60;;;;;;5070267;28;20095;-55
2022/06/16 09:59:18;;;;;;;18.65;5.07;;;33.40;36.20;;;;;;5074082;28;20076;-55
2022/06/16 10:01:56;;;;;;;11.05;4.05;;;33.20;35.70;;;;;;5072654;28;20087;-55
2022/06/16 10:04:22;;;;;;;9.65;2.95;;;33.70;38.80;;;;;;5069163;28;20024;-55
2022/06/16 10:07:15;;;;;;;5.35;2.70;;;33.20;33.20;;;;;;5067774;28;20466;-55
2022/06/16 10:09:50;;;;;;;10.25;4.18;;;33.70;33.80;;;;;;5069485;28;20474;-55
2022/06/16 10:12:41;;;;;;;6.05;2.95;;;33.20;36.90;;;;;;5074211;28;20134;-55
2022/06/16 10:15:22;;;;;;;5.80;3.15;;;33.70;36.30;;;;;;5072245;28;20070;-55
2022/06/16 10:17:51;;;;;;;8.00;3.67;;;33.60;36.40;;;;;;5059532;28;20025;-55
2022/06/16 10:20:28;;;;;;;9.93;2.97;;;33.80;34.30;;;;;;5072662;28;20025;-55
2022/06/16 10:23:29;;;;;;;9.88;4.22;;;33.90;31.30;;;;;;5069884;28;20582;-55
2022/06/16 10:25:59;;;;;;;8.95;3.03;;;33.70;33.90;;;;;;5061628;28;20044;-55
2022/06/16 10:28:28;;;;;;;8.38;2.80;;;33.90;33.30;;;;;;5066055;28;20016;-55
2022/06/16 10:30:56;;;;;;;5.28;2.45;;;34.10;33.60;;;;;;5071237;28;20141;-55
2022/06/16 10:33:26;;;;;;;7.47;2.53;;;34.10;31.10;;;;;;5072914;28;20108;-55
2022/06/16 10:35:54;;;;;;;8.73;2.53;;;34.10;30.70;;;;;;5073700;28;20530;-55
2022/06/16 10:38:33;;;;;;;4.43;2.60;;;34.00;31.00;;;;;;5074201;28;20039;-55
2022/06/16 10:41:01;;;;;;;6.47;2.40;;;34.00;32.00;;;;;;5067871;28;20029;-55
2022/06/16 10:43:30;;;;;;;13.65;4.10;;;34.20;31.90;;;;;;5073253;28;20160;-55
2022/06/16 10:46:22;;;;;;;4.88;1.95;;;34.10;34.20;;;;;;5071561;28;20020;-55
2022/06/16 10:48:52;;;;;;;8.15;3.08;;;34.20;28.80;;;;;;5071185;28;20029;-55
2022/06/16 10:51:23;;;;;;;6.13;2.40;;;34.30;31.30;;;;;;5072655;28;20063;-55
2022/06/16 10:54:11;;;;;;;7.55;2.30;;;34.60;28.70;;;;;;5102034;28;20028;-55
2022/06/16 10:56:39;;;;;;;9.32;3.28;;;34.70;31.70;;;;;;5070945;28;20056;-55
2022/06/16 10:59:27;;;;;;;6.20;2.75;;;34.50;29.90;;;;;;5073498;28;20412;-55
2022/06/16 11:02:01;;;;;;;11.25;4.18;;;34.40;32.70;;;;;;5073104;28;20021;-55
2022/06/16 11:04:43;;;;;;;16.38;5.03;;;34.30;31.50;;;;;;5072200;28;20048;-55
2022/06/16 11:07:17;;;;;;;12.35;4.60;;;33.00;31.00;;;;;;5071275;28;20028;-55
2022/06/16 11:09:55;;;;;;;5.10;2.90;;;33.30;32.30;;;;;;5071144;28;20031;-55
2022/06/16 11:12:23;;;;;;;8.45;3.45;;;33.60;33.40;;;;;;5071161;28;20170;-55
2022/06/16 11:14:59;;;;;;;9.88;3.35;;;33.80;32.00;;;;;;5073294;28;20051;-55
2022/06/16 11:17:26;;;;;;;9.13;3.15;;;34.00;33.80;;;;;;5056595;28;20416;-56
2022/06/16 11:19:58;;;;;;;7.97;2.97;;;34.20;32.80;;;;;;5073011;28;20029;-55
2022/06/16 11:22:34;;;;;;;5.30;2.70;;;34.10;32.80;;;;;;5070663;28;20035;-55
2022/06/16 11:25:02;;;;;;;5.82;2.65;;;34.10;30.00;;;;;;5072605;28;20442;-55
2022/06/16 11:27:36;;;;;;;13.48;4.18;;;33.60;31.50;;;;;;5072990;28;20074;-55
2022/06/16 11:30:23;;;;;;;10.40;3.95;;;33.80;31.50;;;;;;5073723;28;20048;-55
2022/06/16 11:32:49;;;;;;;15.02;4.13;;;34.20;31.10;;;;;;5072889;28;20021;-55
2022/06/16 11:35:15;;;;;;;9.80;3.67;;;34.20;30.90;;;;;;5075737;28;20385;-55
2022/06/16 11:37:58;;;;;;;12.05;4.53;;;33.90;33.40;;;;;;5071796;28;20032;-55
2022/06/16 11:40:42;;;;;;;14.32;4.18;;;34.30;32.80;;;;;;5071967;28;20438;-55
2022/06/16 11:43:27;;;;;;;6.97;3.00;;;34.40;31.80;;;;;;5066158;28;20028;-55
2022/06/16 11:46:12;;;;;;;13.55;3.50;;;34.60;32.90;;;;;;5071853;28;20029;-55
2022/06/16 11:48:41;;;;;;;10.35;3.55;;;34.50;30.70;;;;;;5069443;28;20096;-55
2022/06/16 11:51:24;;;;;;;13.07;3.53;;;34.90;30.10;;;;;;5072956;28;20036;-55
2022/06/16 11:53:50;;;;;;;5.57;3.42;;;34.70;32.20;;;;;;5066653;28;20020;-55
2022/06/16 11:56:28;;;;;;;11.32;3.47;;;35.00;30.50;;;;;;5072983;28;20090;-55
2022/06/16 11:59:17;;;;;;;9.82;3.25;;;35.10;31.20;;;;;;5071837;28;20457;-55
2022/06/16 12:01:56;;;;;;;12.18;4.55;;;34.70;29.30;;;;;;5070414;28;20037;-55
2022/06/16 12:04:55;;;;;;;15.40;3.65;;;34.40;30.10;;;;;;5069779;28;20190;-55
2022/06/16 12:07:27;;;;;;;7.35;3.15;;;32.90;31.40;;;;;;5073529;28;20025;-55
2022/06/16 12:10:06;;;;;;;11.95;4.10;;;32.80;31.90;;;;;;5077171;28;20115;-55
2022/06/16 12:13:03;;;;;;;11.43;3.72;;;33.30;31.70;;;;;;5075265;28;20032;-55
2022/06/16 12:15:50;;;;;;;9.85;3.22;;;33.50;32.10;;;;;;5072477;28;20056;-55
2022/06/16 12:18:38;;;;;;;26.77;6.60;;;34.00;31.70;;;;;;5074357;28;20089;-55
2022/06/16 12:21:09;;;;;;;14.55;4.53;;;33.10;32.50;;;;;;5074641;28;20502;-55
2022/06/16 12:24:04;;;;;;;14.32;3.47;;;33.90;36.40;;;;;;5073347;28;20074;-54
2022/06/16 12:26:52;;;;;;;38.92;10.25;;;34.20;33.60;;;;;;5041886;28;20068;-55
2022/06/16 12:29:27;;;;;;;10.23;2.95;;;34.30;32.60;;;;;;5072381;28;20029;-55
2022/06/16 12:32:02;;;;;;;14.88;4.18;;;34.50;35.40;;;;;;5074703;28;20017;-55
2022/06/16 12:34:53;;;;;;;8.60;3.50;;;34.50;34.20;;;;;;5075099;28;20074;-55
2022/06/16 12:37:24;;;;;;;8.10;3.10;;;34.60;36.30;;;;;;5072599;28;20023;-55
2022/06/16 12:39:54;;;;;;;;;;;34.90;33.00;;;;;;5075735;28;20025;-55
2022/06/16 12:42:24;;;;;;;8.23;3.08;;;34.90;32.80;;;;;;5060735;28;19919;-55
2022/06/16 12:45:00;;;;;;;14.40;4.22;;;34.80;32.00;;;;;;5071429;28;20376;-55
2022/06/16 12:47:34;;;;;;;11.15;3.25;;;34.80;31.90;;;;;;5075611;28;20026;-55
2022/06/16 12:50:16;;;;;;;14.05;4.57;;;34.60;31.90;;;;;;5075062;28;20059;-55
2022/06/16 12:52:50;;;;;;;10.10;3.15;;;34.60;32.90;;;;;;5072391;28;20374;-55
2022/06/16 12:55:20;;;;;;;14.13;4.60;;;34.00;31.30;;;;;;5075759;28;20024;-55
2022/06/16 12:57:59;;;;;;;;;;;33.60;31.60;;;;;;5074890;28;20454;-55
2022/06/16 13:00:31;;;;;;;8.80;3.20;;;33.90;34.10;;;;;;5074145;28;19912;-55
2022/06/16 13:03:12;;;;;;;9.63;3.85;;;33.80;35.60;;;;;;5068095;28;20129;-55
2022/06/16 13:05:38;;;;;;;10.40;4.05;;;34.10;34.00;;;;;;5071294;28;20059;-55
2022/06/16 13:08:06;;;;;;;10.38;3.15;;;34.40;32.90;;;;;;5069333;28;20028;-55
2022/06/16 13:10:42;;;;;;;8.52;3.03;;;34.20;34.60;;;;;;5073098;28;20566;-55
2022/06/16 13:13:09;;;;;;;9.13;3.50;;;34.00;34.20;;;;;;5073327;28;20023;-55
2022/06/16 13:15:44;;;;;;;9.18;3.30;;;33.80;32.10;;;;;;5073371;28;20031;-55
2022/06/16 13:18:20;;;;;;;7.93;3.28;;;33.90;33.40;;;;;;5071748;28;20544;-55
2022/06/16 13:20:53;;;;;;;8.63;3.85;;;34.00;32.50;;;;;;5071468;28;20032;-55
2022/06/16 13:23:30;;;;;;;12.75;4.03;;;33.90;32.40;;;;;;5069865;28;20082;-55
2022/06/16 13:26:06;;;;;;;15.48;4.38;;;34.00;35.20;;;;;;5072782;28;20505;-55
2022/06/16 13:28:39;;;;;;;13.27;4.00;;;33.90;33.30;;;;;;5074220;28;20225;-55
2022/06/16 13:31:22;;;;;;;21.63;5.32;;;33.80;33.00;;;;;;5074433;28;20016;-54
2022/06/16 13:33:53;;;;;;;16.27;5.38;;;33.50;33.00;;;;;;5074971;28;20358;-54
2022/06/16 13:36:28;;;;;;;10.60;3.55;;;33.20;33.90;;;;;;5075442;28;20107;-54